Time;durP1;ratioP1;P1;durP2;ratioP2;P2;SDS_P1;SDS_P2;PMS_P1;PMS_P2;Temp;Humidity;BMP_temperature;BMP_pressure;BME280_temperature;BME280_humidity;BME280_pressure;Samples;Min_cycle;Max_cycle;Signal;HPM_P1;HPM_P2
2023/02/22 00:00:51;;;;;;;11.73;6.30;;;;;;;;;;5052555;28;20335;-81
2023/02/22 00:03:26;;;;;;;12.73;6.85;;;;;;;;;;5051649;28;20036;-81
2023/02/22 00:05:56;;;;;;;11.18;5.93;;;;;;;;;;5052726;28;20025;-80
2023/02/22 00:08:29;;;;;;;12.40;6.13;;;;;;;;;;5051520;28;20021;-80
2023/02/22 00:10:55;;;;;;;11.90;7.20;;;;;;;;;;5051371;28;20076;-81
2023/02/22 00:13:24;;;;;;;14.02;7.40;;;;;;;;;;5052297;28;20024;-80
2023/02/22 00:15:49;;;;;;;12.70;6.57;;;;;;;;;;5051462;28;20444;-80
2023/02/22 00:18:17;;;;;;;12.93;6.38;;;;;;;;;;5052394;28;20316;-80
2023/02/22 00:20:43;;;;;;;13.13;6.93;;;;;;;;;;5052765;28;20524;-80
2023/02/22 00:23:15;;;;;;;13.52;6.15;;;;;;;;;;5052891;28;20133;-80
2023/02/22 00:25:40;;;;;;;;;;;;;;;;;;5052059;28;20608;-80
2023/02/22 00:28:06;;;;;;;12.00;5.53;;;;;;;;;;5052358;28;19995;-80
2023/02/22 00:30:33;;;;;;;12.70;5.85;;;;;;;;;;5052035;28;20099;-80
2023/02/22 00:32:59;;;;;;;15.00;6.65;;;;;;;;;;5050776;28;20017;-80
2023/02/22 00:35:27;;;;;;;18.52;7.00;;;;;;;;;;5052861;28;20048;-81
2023/02/22 00:37:56;;;;;;;12.98;6.20;;;;;;;;;;5052027;28;20060;-80
2023/02/22 00:40:29;;;;;;;11.32;5.75;;;;;;;;;;5033114;28;20030;-82
2023/02/22 00:42:56;;;;;;;14.55;6.20;;;;;;;;;;5031064;28;20462;-80
2023/02/22 00:45:24;;;;;;;13.63;6.13;;;;;;;;;;5031556;28;20109;-80
2023/02/22 00:47:50;;;;;;;14.45;5.82;;;;;;;;;;5030043;28;20463;-79
2023/02/22 00:50:17;;;;;;;11.55;6.50;;;;;;;;;;5030867;28;20029;-80
2023/02/22 00:52:44;;;;;;;13.02;5.97;;;;;;;;;;5014176;28;20064;-80
2023/02/22 00:55:15;;;;;;;14.85;7.18;;;;;;;;;;5032267;28;20099;-78
2023/02/22 00:57:41;;;;;;;12.38;7.15;;;;;;;;;;5030823;28;20029;-80
2023/02/22 01:00:11;;;;;;;13.85;6.25;;;;;;;;;;5030697;28;20035;-81
2023/02/22 01:02:41;;;;;;;13.40;5.97;;;;;;;;;;5032160;28;20079;-80
2023/02/22 01:05:11;;;;;;;12.73;6.65;;;;;;;;;;5031314;28;20124;-82
2023/02/22 01:07:37;;;;;;;12.23;6.13;;;;;;;;;;5031283;28;20515;-80
2023/02/22 01:10:03;;;;;;;10.75;6.65;;;;;;;;;;5031503;28;20052;-79
2023/02/22 01:12:29;;;;;;;12.25;6.50;;;;;;;;;;5032988;28;20034;-81
2023/02/22 01:14:55;;;;;;;18.85;7.90;;;;;;;;;;5031454;28;20025;-80
2023/02/22 01:17:24;;;;;;;18.38;7.07;;;;;;;;;;5032750;28;20088;-79
2023/02/22 01:19:53;;;;;;;16.08;7.53;;;;;;;;;;5031283;28;20021;-79
2023/02/22 01:22:20;;;;;;;16.88;7.65;;;;;;;;;;5031130;28;20022;-80
2023/02/22 01:24:50;;;;;;;16.30;8.15;;;;;;;;;;5030430;28;20332;-80
2023/02/22 01:27:16;;;;;;;14.82;6.93;;;;;;;;;;5033128;28;20363;-80
2023/02/22 01:29:42;;;;;;;14.60;8.32;;;;;;;;;;5033051;28;20107;-80
2023/02/22 01:32:10;;;;;;;14.88;7.40;;;;;;;;;;5035583;28;20025;-80
2023/02/22 01:34:37;;;;;;;14.43;6.93;;;;;;;;;;5036389;28;20519;-80
2023/02/22 01:37:02;;;;;;;14.98;7.55;;;;;;;;;;5035861;28;20520;-80
2023/02/22 01:39:28;;;;;;;13.45;7.28;;;;;;;;;;5047537;28;20029;-80
2023/02/22 01:41:53;;;;;;;16.52;8.27;;;;;;;;;;5055064;28;20029;-82
2023/02/22 01:44:40;;;;;;;17.95;7.50;;;;;;;;;;5054295;28;20017;-80
2023/02/22 01:47:07;;;;;;;14.90;7.63;;;;;;;;;;5054768;28;20032;-79
2023/02/22 01:49:48;;;;;;;14.77;8.45;;;;;;;;;;5053434;28;20400;-78
2023/02/22 01:52:19;;;;;;;17.73;7.38;;;;;;;;;;5054489;28;20059;-81
2023/02/22 01:54:53;;;;;;;14.80;7.97;;;;;;;;;;5053969;28;20047;-79
2023/02/22 01:57:23;;;;;;;16.35;8.70;;;;;;;;;;5055399;28;20025;-80
2023/02/22 01:59:52;;;;;;;16.02;7.82;;;;;;;;;;5054913;28;20483;-79
2023/02/22 02:02:20;;;;;;;14.50;7.65;;;;;;;;;;5055951;28;20068;-80
2023/02/22 02:04:47;;;;;;;16.58;8.07;;;;;;;;;;5054317;28;20021;-80
2023/02/22 02:07:17;;;;;;;16.88;8.20;;;;;;;;;;5055902;28;20017;-79
2023/02/22 02:10:00;;;;;;;17.73;8.07;;;;;;;;;;5055257;28;20029;-79
2023/02/22 02:12:34;;;;;;;15.82;7.85;;;;;;;;;;5054028;28;20329;-80
2023/02/22 02:15:18;;;;;;;17.30;8.48;;;;;;;;;;5055168;28;20041;-82
2023/02/22 02:17:45;;;;;;;13.63;7.75;;;;;;;;;;5054157;28;20021;-80
2023/02/22 02:20:18;;;;;;;15.73;7.85;;;;;;;;;;5053467;28;20036;-82
2023/02/22 02:22:56;;;;;;;12.85;7.38;;;;;;;;;;5053573;28;20021;-80
2023/02/22 02:25:27;;;;;;;14.63;7.28;;;;;;;;;;5054654;28;20032;-80
2023/02/22 02:28:03;;;;;;;17.25;8.18;;;;;;;;;;5053377;28;20043;-80
2023/02/22 02:30:50;;;;;;;17.98;9.00;;;;;;;;;;5055039;28;20039;-81
2023/02/22 02:33:58;;;;;;;18.02;8.98;;;;;;;;;;5053292;28;20043;-81
2023/02/22 02:36:28;;;;;;;16.92;8.85;;;;;;;;;;5053449;28;20041;-80
2023/02/22 02:39:00;;;;;;;19.95;9.13;;;;;;;;;;5053225;28;20037;-79
2023/02/22 02:41:49;;;;;;;16.73;8.57;;;;;;;;;;5053228;28;20021;-80
2023/02/22 02:44:23;;;;;;;16.55;8.30;;;;;;;;;;5055096;28;20082;-80
2023/02/22 02:47:06;;;;;;;20.30;9.48;;;;;;;;;;5053117;28;20098;-80
2023/02/22 02:49:38;;;;;;;14.73;8.23;;;;;;;;;;5052782;28;20450;-80
2023/02/22 02:52:05;;;;;;;21.02;10.48;;;;;;;;;;5055112;28;20025;-80
2023/02/22 02:54:33;;;;;;;17.17;9.48;;;;;;;;;;5052901;28;20160;-80
2023/02/22 02:56:58;;;;;;;19.27;9.45;;;;;;;;;;5054445;28;20056;-80
2023/02/22 02:59:32;;;;;;;20.92;9.48;;;;;;;;;;5054003;28;20083;-80
2023/02/22 03:02:16;;;;;;;17.10;9.02;;;;;;;;;;5054141;28;20108;-80
2023/02/22 03:04:54;;;;;;;20.08;8.52;;;;;;;;;;5052927;28;20549;-80
2023/02/22 03:07:37;;;;;;;18.70;9.50;;;;;;;;;;5053969;28;20035;-80
2023/02/22 03:10:36;;;;;;;19.58;9.57;;;;;;;;;;5052033;28;20035;-80
2023/02/22 03:13:13;;;;;;;18.92;9.10;;;;;;;;;;5052031;28;20059;-80
2023/02/22 03:15:47;;;;;;;18.70;9.48;;;;;;;;;;5051895;28;20025;-80
2023/02/22 03:18:48;;;;;;;25.70;10.43;;;;;;;;;;5053022;28;20338;-80
2023/02/22 03:21:32;;;;;;;13.38;7.78;;;;;;;;;;5052763;28;20140;-81
2023/02/22 03:24:20;;;;;;;24.63;9.15;;;;;;;;;;5053360;28;20132;-81
2023/02/22 03:26:52;;;;;;;16.15;7.72;;;;;;;;;;5069192;28;20140;-80
2023/02/22 03:29:20;;;;;;;;;;;;;;;;;;5054729;28;20107;-81
2023/02/22 03:31:52;;;;;;;18.38;8.05;;;;;;;;;;5052986;28;19916;-81
2023/02/22 03:34:23;;;;;;;17.13;9.10;;;;;;;;;;5055440;28;20505;-81
2023/02/22 03:37:24;;;;;;;16.88;7.80;;;;;;;;;;5053427;28;20060;-79
2023/02/22 03:39:53;;;;;;;20.05;9.18;;;;;;;;;;4996297;28;20033;-80
2023/02/22 03:42:24;;;;;;;16.17;8.57;;;;;;;;;;5033849;28;20397;-81
2023/02/22 03:44:51;;;;;;;15.52;8.98;;;;;;;;;;5032687;28;20118;-80
2023/02/22 03:47:22;;;;;;;18.25;8.45;;;;;;;;;;5033647;28;20096;-80
2023/02/22 03:50:05;;;;;;;18.83;9.15;;;;;;;;;;5032903;28;20071;-80
2023/02/22 03:52:33;;;;;;;18.60;8.35;;;;;;;;;;5031978;28;20032;-80
2023/02/22 03:55:00;;;;;;;18.50;8.65;;;;;;;;;;5031121;28;20040;-80
2023/02/22 03:57:34;;;;;;;19.42;9.68;;;;;;;;;;5032199;28;20029;-80
2023/02/22 04:00:00;;;;;;;16.00;8.68;;;;;;;;;;5035720;28;20098;-80
2023/02/22 04:02:25;;;;;;;20.10;10.32;;;;;;;;;;5061840;28;20024;-80
2023/02/22 04:04:51;;;;;;;16.00;9.85;;;;;;;;;;5072992;28;20077;-80
2023/02/22 04:07:16;;;;;;;19.70;10.57;;;;;;;;;;5061263;28;20139;-81
2023/02/22 04:09:42;;;;;;;27.92;10.00;;;;;;;;;;5042715;28;20028;-80
2023/02/22 04:12:08;;;;;;;21.45;10.82;;;;;;;;;;5032942;28;20025;-80
2023/02/22 04:14:33;;;;;;;21.80;10.10;;;;;;;;;;5048768;28;20115;-82
2023/02/22 04:16:59;;;;;;;27.63;11.10;;;;;;;;;;5047803;28;20025;-78
2023/02/22 04:19:24;;;;;;;21.42;10.02;;;;;;;;;;5039204;28;20515;-79
2023/02/22 04:21:50;;;;;;;17.58;9.82;;;;;;;;;;5051123;28;20390;-79
2023/02/22 04:24:16;;;;;;;18.95;10.18;;;;;;;;;;5051424;28;20029;-81
2023/02/22 04:26:41;;;;;;;20.55;9.80;;;;;;;;;;5052073;28;20040;-81
2023/02/22 04:29:08;;;;;;;20.83;9.52;;;;;;;;;;5032760;28;20051;-81
2023/02/22 04:31:34;;;;;;;23.00;9.88;;;;;;;;;;5047832;28;20289;-81
2023/02/22 04:34:01;;;;;;;20.38;9.48;;;;;;;;;;5032306;28;20064;-81
2023/02/22 04:36:27;;;;;;;20.58;9.52;;;;;;;;;;5032326;28;20062;-80
2023/02/22 04:38:53;;;;;;;21.42;9.52;;;;;;;;;;5047818;28;20468;-80
2023/02/22 04:41:19;;;;;;;22.52;9.90;;;;;;;;;;5048061;28;20060;-80
2023/02/22 04:43:45;;;;;;;18.92;10.20;;;;;;;;;;5032374;28;20479;-79
2023/02/22 04:46:12;;;;;;;31.58;11.55;;;;;;;;;;5047610;28;20437;-80
2023/02/22 04:48:37;;;;;;;30.80;11.07;;;;;;;;;;5032446;28;20108;-81
2023/02/22 04:51:03;;;;;;;23.23;10.10;;;;;;;;;;5030658;28;20584;-80
2023/02/22 04:53:29;;;;;;;20.35;9.13;;;;;;;;;;5048178;28;20389;-79
2023/02/22 04:55:54;;;;;;;17.88;9.23;;;;;;;;;;5047266;28;20030;-80
2023/02/22 04:58:20;;;;;;;19.10;10.25;;;;;;;;;;5048318;28;20430;-81
2023/02/22 05:00:46;;;;;;;19.63;9.85;;;;;;;;;;5031099;28;20394;-81
2023/02/22 05:03:12;;;;;;;21.58;8.88;;;;;;;;;;5047850;28;20064;-80
2023/02/22 05:05:37;;;;;;;19.02;9.77;;;;;;;;;;5034764;28;20247;-82
2023/02/22 05:08:03;;;;;;;17.90;9.15;;;;;;;;;;5052008;28;20476;-81
2023/02/22 05:10:28;;;;;;;16.00;8.70;;;;;;;;;;5037003;28;20029;-80
2023/02/22 05:12:54;;;;;;;18.83;9.05;;;;;;;;;;5051587;28;20017;-82
2023/02/22 05:15:21;;;;;;;16.17;9.40;;;;;;;;;;5051920;28;20025;-81
2023/02/22 05:17:46;;;;;;;23.08;10.02;;;;;;;;;;5052000;28;20029;-80
2023/02/22 05:20:32;;;;;;;19.55;10.05;;;;;;;;;;5051857;28;20095;-81
2023/02/22 05:23:00;;;;;;;20.02;11.15;;;;;;;;;;5051926;28;20519;-80
2023/02/22 05:25:26;;;;;;;20.77;9.73;;;;;;;;;;5051717;28;20478;-81
2023/02/22 05:27:56;;;;;;;20.88;10.73;;;;;;;;;;5036174;28;20032;-81
2023/02/22 05:30:25;;;;;;;22.17;9.00;;;;;;;;;;5051211;28;20409;-79
2023/02/22 05:32:51;;;;;;;23.67;9.88;;;;;;;;;;5036675;28;20166;-80
2023/02/22 05:35:19;;;;;;;26.50;10.95;;;;;;;;;;5051477;28;20053;-80
2023/02/22 05:37:45;;;;;;;26.23;10.85;;;;;;;;;;5036037;28;20036;-79
2023/02/22 05:40:12;;;;;;;21.92;10.20;;;;;;;;;;5069252;28;20052;-80
2023/02/22 05:42:39;;;;;;;26.60;9.02;;;;;;;;;;5056365;28;20349;-81
2023/02/22 05:45:06;;;;;;;23.63;10.40;;;;;;;;;;5055905;28;20021;-80
2023/02/22 05:47:31;;;;;;;16.20;9.43;;;;;;;;;;5054209;28;20056;-81
2023/02/22 05:49:57;;;;;;;18.70;9.63;;;;;;;;;;5055664;28;20075;-80
2023/02/22 05:52:22;;;;;;;25.88;12.10;;;;;;;;;;5054442;28;20469;-80
2023/02/22 05:54:48;;;;;;;19.88;9.50;;;;;;;;;;5056010;28;20025;-80
2023/02/22 05:57:13;;;;;;;24.23;10.30;;;;;;;;;;5054773;28;20518;-81
2023/02/22 05:59:39;;;;;;;20.95;10.90;;;;;;;;;;5039499;28;20035;-83
2023/02/22 06:02:05;;;;;;;27.55;11.85;;;;;;;;;;5035862;28;20525;-81
2023/02/22 06:04:31;;;;;;;23.77;10.48;;;;;;;;;;5035747;28;20022;-81
2023/02/22 06:06:56;;;;;;;20.58;10.27;;;;;;;;;;5034366;28;20350;-80
2023/02/22 06:09:22;;;;;;;21.98;10.32;;;;;;;;;;5035107;28;20025;-80
2023/02/22 06:11:47;;;;;;;22.73;10.50;;;;;;;;;;5034402;28;20097;-81
2023/02/22 06:14:13;;;;;;;19.05;10.63;;;;;;;;;;5045466;28;20059;-80
2023/02/22 06:16:38;;;;;;;21.73;10.52;;;;;;;;;;5039695;28;20056;-82
2023/02/22 06:19:04;;;;;;;24.75;11.02;;;;;;;;;;5051477;28;20033;-81
2023/02/22 06:21:29;;;;;;;24.80;11.60;;;;;;;;;;5043684;28;20033;-80
2023/02/22 06:23:55;;;;;;;21.67;10.57;;;;;;;;;;5057126;28;20420;-80
2023/02/22 06:26:21;;;;;;;27.67;11.93;;;;;;;;;;5050887;28;20036;-81
2023/02/22 06:28:48;;;;;;;25.90;12.48;;;;;;;;;;5035438;28;20022;-81
2023/02/22 06:31:14;;;;;;;29.73;10.13;;;;;;;;;;5052534;28;20328;-82
2023/02/22 06:33:39;;;;;;;28.92;10.45;;;;;;;;;;5064277;28;20480;-81
2023/02/22 06:36:05;;;;;;;32.78;12.15;;;;;;;;;;5044343;28;20060;-80
2023/02/22 06:38:32;;;;;;;29.75;11.15;;;;;;;;;;5051612;28;20131;-81
2023/02/22 06:40:59;;;;;;;25.20;10.02;;;;;;;;;;5043713;28;20472;-81
2023/02/22 06:43:24;;;;;;;29.58;11.65;;;;;;;;;;5054051;28;20055;-80
2023/02/22 06:45:51;;;;;;;32.67;12.93;;;;;;;;;;5055530;28;20048;-81
2023/02/22 06:48:17;;;;;;;35.67;16.55;;;;;;;;;;5047941;28;20032;-81
2023/02/22 06:50:42;;;;;;;22.42;11.55;;;;;;;;;;5048414;28;20118;-79
2023/02/22 06:53:08;;;;;;;28.75;11.73;;;;;;;;;;5053009;28;20067;-82
2023/02/22 06:55:34;;;;;;;28.77;11.30;;;;;;;;;;5062866;28;20029;-80
2023/02/22 06:58:01;;;;;;;24.83;12.02;;;;;;;;;;5041412;28;20044;-82
2023/02/22 07:00:28;;;;;;;28.77;13.27;;;;;;;;;;5054310;28;20029;-81
2023/02/22 07:02:55;;;;;;;35.22;14.05;;;;;;;;;;5050129;28;20030;-83
2023/02/22 07:05:23;;;;;;;38.78;14.13;;;;;;;;;;5035597;28;20048;-79
2023/02/22 07:07:52;;;;;;;43.63;14.55;;;;;;;;;;5053905;28;20153;-82
2023/02/22 07:10:22;;;;;;;29.17;12.82;;;;;;;;;;5047936;28;20033;-82
2023/02/22 07:12:51;;;;;;;26.58;12.57;;;;;;;;;;5042252;28;20033;-80
2023/02/22 07:15:22;;;;;;;38.15;12.70;;;;;;;;;;5057795;28;20025;-80
2023/02/22 07:17:48;;;;;;;28.73;13.60;;;;;;;;;;5047509;28;20032;-82
2023/02/22 07:20:14;;;;;;;27.85;11.52;;;;;;;;;;5041254;28;20056;-81
2023/02/22 07:22:40;;;;;;;33.35;12.25;;;;;;;;;;5051795;28;20092;-81
2023/02/22 07:25:10;;;;;;;37.60;13.48;;;;;;;;;;5042605;28;20417;-80
2023/02/22 07:27:37;;;;;;;34.63;12.88;;;;;;;;;;5043481;28;20024;-82
2023/02/22 07:30:30;;;;;;;24.00;12.05;;;;;;;;;;5043689;28;20450;-82
2023/02/22 07:32:58;;;;;;;36.40;12.13;;;;;;;;;;5050344;28;20029;-84
2023/02/22 07:35:29;;;;;;;28.38;12.48;;;;;;;;;;5039737;28;20047;-81
2023/02/22 07:37:57;;;;;;;25.73;12.27;;;;;;;;;;5063177;28;20369;-82
2023/02/22 07:40:23;;;;;;;27.58;12.48;;;;;;;;;;5050132;28;20125;-80
2023/02/22 07:42:54;;;;;;;30.10;13.57;;;;;;;;;;5047951;28;20029;-81
2023/02/22 07:45:21;;;;;;;22.50;12.75;;;;;;;;;;5045940;28;20140;-80
2023/02/22 07:47:47;;;;;;;25.90;14.63;;;;;;;;;;5042439;28;20029;-82
2023/02/22 07:50:25;;;;;;;26.40;13.95;;;;;;;;;;5043089;28;20169;-81
2023/02/22 07:52:53;;;;;;;25.98;12.88;;;;;;;;;;5050985;28;20032;-82
2023/02/22 07:55:20;;;;;;;30.98;15.50;;;;;;;;;;5051741;28;20044;-80
2023/02/22 07:57:48;;;;;;;30.13;14.75;;;;;;;;;;5059457;28;20028;-80
2023/02/22 08:00:23;;;;;;;29.95;15.00;;;;;;;;;;5053351;28;20436;-79
2023/02/22 08:02:48;;;;;;;30.55;15.77;;;;;;;;;;5061605;28;20090;-82
2023/02/22 08:05:14;;;;;;;28.02;15.23;;;;;;;;;;5050692;28;20083;-80
2023/02/22 08:07:42;;;;;;;31.85;15.60;;;;;;;;;;5055090;28;20016;-81
2023/02/22 08:10:10;;;;;;;27.92;14.73;;;;;;;;;;5047883;28;20086;-80
2023/02/22 08:12:36;;;;;;;23.08;14.10;;;;;;;;;;5049278;28;20037;-82
2023/02/22 08:15:08;;;;;;;39.10;15.98;;;;;;;;;;5064126;28;20031;-79
2023/02/22 08:17:33;;;;;;;31.75;13.93;;;;;;;;;;5050291;28;20051;-82
2023/02/22 08:20:00;;;;;;;35.28;15.65;;;;;;;;;;5050419;28;20504;-83
2023/02/22 08:22:27;;;;;;;32.08;14.07;;;;;;;;;;5055399;28;20128;-84
2023/02/22 08:24:53;;;;;;;31.17;13.45;;;;;;;;;;5052836;28;20021;-81
2023/02/22 08:27:25;;;;;;;34.70;13.85;;;;;;;;;;5052982;28;21255;-80
2023/02/22 08:29:51;;;;;;;32.15;12.20;;;;;;;;;;5045699;28;20449;-82
2023/02/22 08:32:17;;;;;;;31.00;13.40;;;;;;;;;;5048128;28;20175;-81
2023/02/22 08:34:42;;;;;;;25.70;12.63;;;;;;;;;;5052611;28;20349;-80
2023/02/22 08:37:08;;;;;;;25.23;11.60;;;;;;;;;;5047581;28;20037;-79
2023/02/22 08:39:34;;;;;;;26.95;12.95;;;;;;;;;;5047554;28;20059;-78
2023/02/22 08:41:59;;;;;;;27.45;10.48;;;;;;;;;;5058598;28;20033;-80
2023/02/22 08:44:25;;;;;;;26.58;11.75;;;;;;;;;;5040068;28;20025;-79
2023/02/22 08:47:15;;;;;;;19.25;10.40;;;;;;;;;;5038976;28;20032;-78
2023/02/22 08:49:41;;;;;;;21.38;10.77;;;;;;;;;;5043368;28;20380;-79
2023/02/22 08:52:07;;;;;;;26.15;12.35;;;;;;;;;;5046964;28;20357;-78
2023/02/22 08:54:33;;;;;;;27.05;10.95;;;;;;;;;;5050729;28;20021;-77
2023/02/22 08:56:58;;;;;;;26.52;11.50;;;;;;;;;;5042339;28;20021;-76
2023/02/22 08:59:24;;;;;;;21.90;10.35;;;;;;;;;;5042007;28;20116;-78
2023/02/22 09:01:50;;;;;;;19.40;9.13;;;;;;;;;;5050502;28;20342;-79
2023/02/22 09:04:15;;;;;;;28.38;10.30;;;;;;;;;;5046330;28;20021;-79
2023/02/22 09:06:42;;;;;;;21.60;9.55;;;;;;;;;;5045229;28;20323;-77
2023/02/22 09:09:07;;;;;;;16.40;8.68;;;;;;;;;;5041294;28;20029;-78
2023/02/22 09:11:33;;;;;;;20.50;9.10;;;;;;;;;;5052803;28;20044;-79
2023/02/22 09:13:59;;;;;;;15.82;8.48;;;;;;;;;;5045354;28;20078;-79
2023/02/22 09:16:24;;;;;;;21.92;8.85;;;;;;;;;;5047338;28;20029;-77
2023/02/22 09:18:49;;;;;;;19.20;8.65;;;;;;;;;;5043882;28;20057;-79
2023/02/22 09:21:15;;;;;;;26.77;9.30;;;;;;;;;;5056394;28;20086;-77
2023/02/22 09:23:41;;;;;;;17.83;7.95;;;;;;;;;;5047541;28;20105;-79
2023/02/22 09:26:09;;;;;;;14.00;7.85;;;;;;;;;;5047651;28;20059;-78
2023/02/22 09:28:35;;;;;;;14.07;7.75;;;;;;;;;;5059897;28;20033;-78
2023/02/22 09:31:03;;;;;;;17.58;8.73;;;;;;;;;;5045052;28;20036;-77
2023/02/22 09:33:29;;;;;;;18.88;8.45;;;;;;;;;;5048289;28;20037;-78
2023/02/22 09:35:54;;;;;;;16.00;6.88;;;;;;;;;;5045372;28;20053;-80
2023/02/22 09:38:23;;;;;;;15.10;6.82;;;;;;;;;;5054767;28;20036;-79
2023/02/22 09:40:53;;;;;;;22.70;8.63;;;;;;;;;;5044747;28;20031;-77
2023/02/22 09:43:34;;;;;;;17.00;7.43;;;;;;;;;;5048403;28;20020;-78
2023/02/22 09:46:01;;;;;;;16.02;6.90;;;;;;;;;;5049680;28;20025;-79
2023/02/22 09:48:30;;;;;;;22.55;7.38;;;;;;;;;;5049272;28;20036;-78
2023/02/22 09:50:58;;;;;;;13.40;7.00;;;;;;;;;;5038240;28;20140;-78
2023/02/22 09:53:31;;;;;;;16.98;6.68;;;;;;;;;;5043558;28;20069;-78
2023/02/22 09:56:05;;;;;;;29.95;9.32;;;;;;;;;;5049532;28;20035;-78
2023/02/22 09:58:45;;;;;;;18.67;7.30;;;;;;;;;;5041834;28;20590;-79
2023/02/22 10:01:42;;;;;;;17.52;7.38;;;;;;;;;;5064460;28;20127;-79
2023/02/22 10:04:40;;;;;;;15.25;7.25;;;;;;;;;;5049537;28;20025;-78
2023/02/22 10:07:14;;;;;;;26.60;9.45;;;;;;;;;;5048098;28;20032;-77
2023/02/22 10:09:42;;;;;;;17.50;8.18;;;;;;;;;;5045357;28;20028;-79
2023/02/22 10:12:17;;;;;;;18.77;6.82;;;;;;;;;;5052207;28;20378;-79
2023/02/22 10:15:10;;;;;;;19.38;7.97;;;;;;;;;;5064483;28;20575;-78
2023/02/22 10:18:02;;;;;;;14.60;7.97;;;;;;;;;;5045697;28;20092;-78
2023/02/22 10:20:47;;;;;;;18.23;7.95;;;;;;;;;;5044580;28;20075;-80
2023/02/22 10:23:53;;;;;;;14.50;7.72;;;;;;;;;;5045407;28;20082;-82
2023/02/22 10:26:27;;;;;;;20.45;7.45;;;;;;;;;;5048344;28;20396;-80
2023/02/22 10:29:00;;;;;;;18.27;8.05;;;;;;;;;;5055264;28;20049;-83
2023/02/22 10:31:47;;;;;;;17.17;7.78;;;;;;;;;;5056931;28;20465;-81
2023/02/22 10:34:18;;;;;;;17.20;7.68;;;;;;;;;;5064685;28;20495;-82
2023/02/22 10:36:47;;;;;;;16.20;7.68;;;;;;;;;;5041529;28;20064;-81
2023/02/22 10:39:26;;;;;;;11.73;7.13;;;;;;;;;;5042640;28;20063;-83
2023/02/22 10:41:56;;;;;;;15.43;8.00;;;;;;;;;;5049304;28;20021;-80
2023/02/22 10:44:22;;;;;;;20.63;8.80;;;;;;;;;;5053662;28;20024;-81
2023/02/22 10:47:19;;;;;;;14.95;8.02;;;;;;;;;;5051161;28;20029;-82
2023/02/22 10:49:52;;;;;;;26.40;8.70;;;;;;;;;;5049927;28;20109;-82
2023/02/22 10:52:33;;;;;;;15.25;7.18;;;;;;;;;;5050794;28;20036;-79
2023/02/22 10:55:00;;;;;;;12.07;7.35;;;;;;;;;;5027305;28;20041;-81
2023/02/22 10:57:48;;;;;;;15.27;7.97;;;;;;;;;;5067638;28;20107;-82
2023/02/22 11:00:25;;;;;;;18.52;8.45;;;;;;;;;;5031499;28;20137;-79
2023/02/22 11:02:59;;;;;;;16.45;8.05;;;;;;;;;;5056298;28;20072;-79
2023/02/22 11:05:28;;;;;;;15.98;8.75;;;;;;;;;;5050135;28;20090;-83
2023/02/22 11:08:14;;;;;;;15.88;8.60;;;;;;;;;;5047291;28;20429;-82
2023/02/22 11:10:42;;;;;;;17.88;8.35;;;;;;;;;;5064019;28;20071;-82
2023/02/22 11:13:27;;;;;;;22.42;8.75;;;;;;;;;;5034673;28;20029;-83
2023/02/22 11:15:57;;;;;;;15.52;8.38;;;;;;;;;;5051507;28;20021;-81
2023/02/22 11:18:28;;;;;;;14.95;8.63;;;;;;;;;;5039845;28;20040;-81
2023/02/22 11:21:09;;;;;;;21.67;8.88;;;;;;;;;;5054770;28;20849;-85
2023/02/22 11:23:36;;;;;;;17.45;8.65;;;;;;;;;;5044591;28;20048;-82
2023/02/22 11:26:19;;;;;;;11.85;7.57;;;;;;;;;;5057122;28;20024;-83
2023/02/22 11:28:54;;;;;;;13.52;7.35;;;;;;;;;;5043353;28;20055;-81
2023/02/22 11:31:54;;;;;;;16.67;9.50;;;;;;;;;;5042197;28;20016;-80
2023/02/22 11:34:43;;;;;;;10.57;7.25;;;;;;;;;;5041516;28;20220;-78
2023/02/22 11:37:33;;;;;;;14.95;8.25;;;;;;;;;;5051661;28;20041;-79
2023/02/22 11:40:23;;;;;;;13.13;7.85;;;;;;;;;;5045021;28;20033;-79
2023/02/22 11:43:06;;;;;;;21.73;9.23;;;;;;;;;;5061829;28;20734;-80
2023/02/22 11:45:34;;;;;;;18.98;8.70;;;;;;;;;;5039876;28;20033;-79
2023/02/22 11:48:01;;;;;;;18.60;7.78;;;;;;;;;;5049993;28;20306;-80
2023/02/22 11:51:02;;;;;;;13.48;8.50;;;;;;;;;;5051375;28;20095;-81
2023/02/22 11:53:53;;;;;;;13.63;7.43;;;;;;;;;;5037345;28;20037;-79
2023/02/22 11:56:51;;;;;;;17.85;8.73;;;;;;;;;;5056689;28;20036;-80
2023/02/22 11:59:35;;;;;;;12.27;7.65;;;;;;;;;;5031616;28;20561;-83
2023/02/22 12:02:25;;;;;;;15.60;8.45;;;;;;;;;;5036333;28;20037;-80
2023/02/22 12:05:07;;;;;;;11.27;6.90;;;;;;;;;;5044952;28;20034;-80
2023/02/22 12:07:33;;;;;;;;;;;;;;;;;;5049820;28;20087;-79
2023/02/22 12:10:20;;;;;;;13.07;7.07;;;;;;;;;;5045980;28;19920;-78
2023/02/22 12:12:58;;;;;;;15.35;7.43;;;;;;;;;;5037831;28;20041;-80
2023/02/22 12:15:57;;;;;;;14.70;7.93;;;;;;;;;;5038732;28;20453;-81
2023/02/22 12:18:48;;;;;;;19.67;8.68;;;;;;;;;;5039625;28;20112;-81
2023/02/22 12:21:19;;;;;;;21.55;8.75;;;;;;;;;;5045445;28;20028;-80
2023/02/22 12:24:00;;;;;;;14.25;8.10;;;;;;;;;;5044525;28;20036;-81
2023/02/22 12:26:30;;;;;;;15.98;8.45;;;;;;;;;;5045491;28;20043;-80
2023/02/22 12:28:58;;;;;;;20.30;9.57;;;;;;;;;;5046161;28;20025;-79
2023/02/22 12:31:52;;;;;;;15.75;8.05;;;;;;;;;;5044831;28;20499;-80
2023/02/22 12:34:26;;;;;;;16.85;7.82;;;;;;;;;;5044422;28;20085;-80
2023/02/22 12:37:18;;;;;;;16.38;7.55;;;;;;;;;;5040076;28;20057;-84
2023/02/22 12:40:08;;;;;;;15.15;8.02;;;;;;;;;;5049356;28;20041;-83
2023/02/22 12:42:55;;;;;;;21.50;8.13;;;;;;;;;;5041574;28;20057;-84
2023/02/22 12:46:01;;;;;;;13.75;8.18;;;;;;;;;;5047666;28;20111;-84
2023/02/22 12:49:07;;;;;;;13.63;7.25;;;;;;;;;;5042345;28;20468;-81
2023/02/22 12:51:47;;;;;;;14.65;6.90;;;;;;;;;;5059470;28;20039;-81
2023/02/22 12:54:16;;;;;;;16.85;7.43;;;;;;;;;;5064316;28;20081;-83
2023/02/22 12:56:56;;;;;;;22.10;7.22;;;;;;;;;;5037692;28;20065;-79
2023/02/22 12:59:40;;;;;;;15.43;6.85;;;;;;;;;;5036300;28;20150;-80
2023/02/22 13:02:20;;;;;;;13.30;7.10;;;;;;;;;;5039260;28;20052;-79
2023/02/22 13:04:46;;;;;;;20.48;7.70;;;;;;;;;;5048367;28;20364;-81
2023/02/22 13:07:34;;;;;;;15.40;6.85;;;;;;;;;;5043044;28;20037;-79
2023/02/22 13:10:09;;;;;;;12.93;6.90;;;;;;;;;;5036071;28;20438;-80
2023/02/22 13:12:37;;;;;;;13.95;6.88;;;;;;;;;;5044026;28;20029;-80
2023/02/22 13:15:19;;;;;;;14.43;6.93;;;;;;;;;;5060282;28;20056;-80
2023/02/22 13:18:02;;;;;;;18.67;6.93;;;;;;;;;;5040989;28;20035;-79
2023/02/22 13:20:33;;;;;;;13.32;6.97;;;;;;;;;;5060181;28;20047;-79
2023/02/22 13:23:06;;;;;;;12.38;5.80;;;;;;;;;;5048112;28;20028;-80
2023/02/22 13:25:58;;;;;;;12.75;7.07;;;;;;;;;;5040039;28;20101;-80
2023/02/22 13:28:38;;;;;;;12.88;6.40;;;;;;;;;;5044980;28;20028;-80
2023/02/22 13:31:40;;;;;;;12.00;6.47;;;;;;;;;;5051987;28;20381;-78
2023/02/22 13:34:11;;;;;;;;;;;;;;;;;;5052759;28;20048;-79
2023/02/22 13:37:11;;;;;;;15.77;5.80;;;;;;;;;;5051495;28;19975;-78
2023/02/22 13:39:58;;;;;;;18.10;6.85;;;;;;;;;;5043051;28;20143;-80
2023/02/22 13:42:34;;;;;;;12.35;6.70;;;;;;;;;;5044413;28;20487;-80
2023/02/22 13:45:18;;;;;;;24.23;6.63;;;;;;;;;;5042567;28;20025;-81
2023/02/22 13:48:17;;;;;;;13.40;6.80;;;;;;;;;;5041731;28;20029;-82
2023/02/22 13:51:05;;;;;;;9.85;4.72;;;;;;;;;;5039262;28;20075;-81
2023/02/22 13:53:58;;;;;;;10.48;4.30;;;;;;;;;;5053076;28;20313;-80
2023/02/22 13:56:25;;;;;;;10.13;5.07;;;;;;;;;;5049870;28;20038;-81
2023/02/22 13:58:59;;;;;;;11.10;5.47;;;;;;;;;;5039231;28;20056;-82
2023/02/22 14:02:03;;;;;;;8.65;6.65;;;;;;;;;;5048534;28;20021;-82
2023/02/22 14:04:35;;;;;;;21.55;6.70;;;;;;;;;;5058287;28;20028;-80
2023/02/22 14:07:21;;;;;;;9.70;5.90;;;;;;;;;;5055138;28;20025;-81
2023/02/22 14:10:00;;;;;;;9.98;5.35;;;;;;;;;;5039266;28;20025;-79
2023/02/22 14:12:29;;;;;;;12.20;6.47;;;;;;;;;;5064665;28;20024;-80
2023/02/22 14:15:09;;;;;;;9.68;5.97;;;;;;;;;;5046363;28;20042;-79
2023/02/22 14:17:58;;;;;;;10.82;5.80;;;;;;;;;;5043499;28;20437;-79
2023/02/22 14:20:31;;;;;;;18.13;6.63;;;;;;;;;;5042524;28;20020;-81
2023/02/22 14:23:18;;;;;;;14.35;6.18;;;;;;;;;;5047671;28;20477;-82
2023/02/22 14:25:44;;;;;;;11.55;6.07;;;;;;;;;;5055404;28;20086;-80
2023/02/22 14:28:37;;;;;;;16.98;7.63;;;;;;;;;;5052104;28;20124;-80
2023/02/22 14:31:15;;;;;;;17.15;7.43;;;;;;;;;;5048750;28;20032;-80
2023/02/22 14:34:02;;;;;;;11.30;6.15;;;;;;;;;;5043192;28;20053;-80
2023/02/22 14:36:49;;;;;;;12.35;6.97;;;;;;;;;;5050376;28;20089;-80
2023/02/22 14:39:33;;;;;;;12.65;7.22;;;;;;;;;;5049827;28;20451;-80
2023/02/22 14:42:04;;;;;;;13.15;7.00;;;;;;;;;;5055692;28;20098;-79
2023/02/22 14:44:55;;;;;;;14.95;7.78;;;;;;;;;;5042252;28;20556;-80
2023/02/22 14:47:38;;;;;;;14.88;7.85;;;;;;;;;;5082674;28;20122;-79
2023/02/22 14:50:36;;;;;;;16.10;6.68;;;;;;;;;;5039421;28;20400;-80
2023/02/22 14:53:06;;;;;;;11.80;6.97;;;;;;;;;;5059445;28;20041;-80
2023/02/22 14:55:40;;;;;;;14.55;6.90;;;;;;;;;;5041024;28;20029;-79
2023/02/22 14:58:17;;;;;;;16.00;7.18;;;;;;;;;;5062284;28;20069;-80
2023/02/22 15:00:51;;;;;;;15.93;8.20;;;;;;;;;;5036261;28;20051;-80
2023/02/22 15:03:36;;;;;;;11.70;7.32;;;;;;;;;;5049983;28;20087;-79